Time;durP1;ratioP1;P1;durP2;ratioP2;P2;SDS_P1;SDS_P2;PMS_P1;PMS_P2;Temp;Humidity;BMP_temperature;BMP_pressure;BME280_temperature;BME280_humidity;BME280_pressure;Samples;Min_cycle;Max_cycle;Signal;HPM_P1;HPM_P2
2023/01/29 00:00:11;;;;;;;11.90;10.80;;;;;;;;;;518951;28;1479;-64
2023/01/29 00:00:26;;;;;;;11.30;10.27;;;;;;;;;;521245;28;1679;-64
2023/01/29 00:00:42;;;;;;;11.50;10.50;;;;;;;;;;519883;28;1218;-64
2023/01/29 00:01:05;;;;;;;11.77;10.77;;;;;;;;;;520970;28;1301;-65
2023/01/29 00:01:21;;;;;;;11.63;10.63;;;;;;;;;;519240;28;1523;-64
2023/01/29 00:01:36;;;;;;;11.53;10.47;;;;;;;;;;519426;28;1289;-65
2023/01/29 00:01:52;;;;;;;11.68;10.57;;;;;;;;;;520471;28;1187;-64
2023/01/29 00:02:07;;;;;;;11.32;10.32;;;;;;;;;;521168;28;1724;-64
2023/01/29 00:02:22;;;;;;;11.23;10.30;;;;;;;;;;519265;28;1412;-64
2023/01/29 00:02:38;;;;;;;11.70;10.70;;;;;;;;;;518098;28;1366;-64
2023/01/29 00:02:53;;;;;;;11.20;10.20;;;;;;;;;;518411;28;1354;-64
2023/01/29 00:03:09;;;;;;;10.87;9.93;;;;;;;;;;517029;28;1229;-64
2023/01/29 00:03:24;;;;;;;10.82;9.85;;;;;;;;;;515567;28;1229;-64
2023/01/29 00:03:40;;;;;;;11.33;10.33;;;;;;;;;;518897;28;1339;-64
2023/01/29 00:03:56;;;;;;;11.98;10.93;;;;;;;;;;517990;28;1429;-64
2023/01/29 00:04:11;;;;;;;11.30;10.30;;;;;;;;;;520380;28;1482;-64
2023/01/29 00:04:26;;;;;;;10.80;9.87;;;;;;;;;;518457;28;1428;-64
2023/01/29 00:04:41;;;;;;;11.10;10.10;;;;;;;;;;523488;28;1440;-64
2023/01/29 00:04:58;;;;;;;11.07;10.07;;;;;;;;;;525086;28;1367;-64
2023/01/29 00:05:14;;;;;;;11.20;10.20;;;;;;;;;;524696;28;2202;-64
2023/01/29 00:05:29;;;;;;;11.07;10.07;;;;;;;;;;523161;28;1267;-64
2023/01/29 00:05:44;;;;;;;11.07;10.07;;;;;;;;;;523274;28;1306;-64
2023/01/29 00:06:03;;;;;;;11.75;10.75;;;;;;;;;;524580;28;1257;-64
2023/01/29 00:06:19;;;;;;;12.35;11.35;;;;;;;;;;521607;28;1645;-64
2023/01/29 00:06:34;;;;;;;12.97;11.87;;;;;;;;;;521186;28;1427;-64
2023/01/29 00:06:50;;;;;;;13.57;12.37;;;;;;;;;;521866;28;1384;-64
2023/01/29 00:07:05;;;;;;;13.95;12.70;;;;;;;;;;520377;28;1497;-64
2023/01/29 00:07:20;;;;;;;13.77;12.57;;;;;;;;;;521332;28;1288;-64
2023/01/29 00:07:35;;;;;;;14.13;12.90;;;;;;;;;;519932;28;1472;-64
2023/01/29 00:07:51;;;;;;;14.55;13.25;;;;;;;;;;520920;28;1373;-64
2023/01/29 00:08:06;;;;;;;14.27;12.97;;;;;;;;;;521557;28;1166;-64
2023/01/29 00:08:21;;;;;;;14.03;12.73;;;;;;;;;;520333;28;1361;-64
2023/01/29 00:08:37;;;;;;;14.70;13.30;;;;;;;;;;518975;28;2080;-64
2023/01/29 00:08:52;;;;;;;14.85;13.50;;;;;;;;;;518274;28;1294;-64
2023/01/29 00:09:08;;;;;;;14.20;12.90;;;;;;;;;;518740;28;1210;-64
2023/01/29 00:09:24;;;;;;;13.88;12.57;;;;;;;;;;519009;28;1429;-64
2023/01/29 00:09:39;;;;;;;14.23;12.93;;;;;;;;;;520406;28;1923;-64
2023/01/29 00:09:54;;;;;;;14.20;12.90;;;;;;;;;;520357;28;1419;-64
2023/01/29 00:10:10;;;;;;;13.67;12.37;;;;;;;;;;522351;28;1592;-64
2023/01/29 00:10:25;;;;;;;13.93;12.63;;;;;;;;;;519771;28;1260;-64
2023/01/29 00:10:41;;;;;;;14.27;12.97;;;;;;;;;;520027;28;1536;-64
2023/01/29 00:11:07;;;;;;;14.50;13.10;;;;;;;;;;522805;28;1309;-64
2023/01/29 00:11:24;;;;;;;13.70;12.50;;;;;;;;;;522371;28;1677;-64
2023/01/29 00:11:39;;;;;;;13.98;12.77;;;;;;;;;;520737;28;1931;-64
2023/01/29 00:11:54;;;;;;;14.20;12.93;;;;;;;;;;520858;28;1310;-64
2023/01/29 00:12:10;;;;;;;13.53;12.33;;;;;;;;;;522611;28;1205;-64
2023/01/29 00:12:25;;;;;;;13.50;12.23;;;;;;;;;;519984;28;1291;-64
2023/01/29 00:12:40;;;;;;;13.83;12.53;;;;;;;;;;520265;28;1407;-64
2023/01/29 00:12:56;;;;;;;14.40;13.10;;;;;;;;;;520494;28;1397;-64
2023/01/29 00:13:11;;;;;;;14.77;13.38;;;;;;;;;;517352;28;1215;-64
2023/01/29 00:13:26;;;;;;;14.40;13.10;;;;;;;;;;517551;28;1663;-64
2023/01/29 00:13:43;;;;;;;14.10;12.80;;;;;;;;;;519228;28;1507;-64
2023/01/29 00:13:58;;;;;;;13.80;12.57;;;;;;;;;;517540;28;1431;-64
2023/01/29 00:14:14;;;;;;;13.67;12.47;;;;;;;;;;519503;28;1354;-64
2023/01/29 00:14:29;;;;;;;13.23;12.05;;;;;;;;;;520372;28;1057;-64
2023/01/29 00:14:44;;;;;;;13.23;12.10;;;;;;;;;;519441;28;1505;-65
2023/01/29 00:15:00;;;;;;;13.70;12.50;;;;;;;;;;521061;28;2012;-64
2023/01/29 00:15:15;;;;;;;14.05;12.75;;;;;;;;;;523472;28;1360;-64
2023/01/29 00:15:30;;;;;;;14.10;12.80;;;;;;;;;;523271;28;1366;-65
2023/01/29 00:15:54;;;;;;;13.70;12.50;;;;;;;;;;523401;28;1355;-65
2023/01/29 00:16:09;;;;;;;13.40;12.30;;;;;;;;;;521324;28;1423;-64
2023/01/29 00:16:25;;;;;;;13.80;12.50;;;;;;;;;;519791;28;1494;-64
2023/01/29 00:16:41;;;;;;;13.77;12.43;;;;;;;;;;519243;28;1635;-64
2023/01/29 00:16:56;;;;;;;13.38;12.07;;;;;;;;;;518757;28;1348;-64
2023/01/29 00:17:11;;;;;;;13.07;11.87;;;;;;;;;;516943;28;1369;-64
2023/01/29 00:17:27;;;;;;;13.57;12.30;;;;;;;;;;518447;28;1428;-64
2023/01/29 00:17:43;;;;;;;13.23;12.02;;;;;;;;;;517082;28;1369;-63
2023/01/29 00:17:58;;;;;;;12.85;11.65;;;;;;;;;;521602;28;1345;-63
2023/01/29 00:18:13;;;;;;;12.82;11.63;;;;;;;;;;519520;28;1254;-63
2023/01/29 00:18:30;;;;;;;12.77;11.67;;;;;;;;;;518444;28;1232;-63
2023/01/29 00:18:45;;;;;;;12.82;11.70;;;;;;;;;;519753;28;1450;-64
2023/01/29 00:19:01;;;;;;;12.73;11.63;;;;;;;;;;518439;28;1499;-63
2023/01/29 00:19:16;;;;;;;13.27;12.02;;;;;;;;;;519129;28;1169;-64
2023/01/29 00:19:32;;;;;;;13.82;12.52;;;;;;;;;;520219;28;1141;-64
2023/01/29 00:19:47;;;;;;;13.57;12.37;;;;;;;;;;519735;28;1519;-64
2023/01/29 00:20:02;;;;;;;13.50;12.30;;;;;;;;;;516118;28;1438;-64
2023/01/29 00:20:18;;;;;;;13.52;12.32;;;;;;;;;;521473;28;1428;-64
2023/01/29 00:20:33;;;;;;;13.03;11.93;;;;;;;;;;521639;28;1256;-63
2023/01/29 00:20:48;;;;;;;12.75;11.65;;;;;;;;;;519783;28;1211;-64
2023/01/29 00:21:15;;;;;;;13.13;11.93;;;;;;;;;;520550;28;1289;-63
2023/01/29 00:21:31;;;;;;;13.48;12.27;;;;;;;;;;519201;28;1358;-64
2023/01/29 00:21:46;;;;;;;13.50;12.30;;;;;;;;;;518629;28;1256;-64
2023/01/29 00:22:01;;;;;;;13.57;12.27;;;;;;;;;;521143;28;1513;-64
2023/01/29 00:22:16;;;;;;;13.73;12.52;;;;;;;;;;519888;28;1329;-64
2023/01/29 00:22:32;;;;;;;13.70;12.60;;;;;;;;;;521186;28;1380;-64
2023/01/29 00:22:47;;;;;;;14.00;12.83;;;;;;;;;;522698;28;1172;-64
2023/01/29 00:23:02;;;;;;;14.25;13.05;;;;;;;;;;522284;28;1607;-64
2023/01/29 00:23:18;;;;;;;13.83;12.63;;;;;;;;;;521721;28;1202;-64
2023/01/29 00:23:34;;;;;;;14.05;12.75;;;;;;;;;;521449;28;1422;-64
2023/01/29 00:23:50;;;;;;;14.03;12.73;;;;;;;;;;520582;28;1215;-64
2023/01/29 00:24:05;;;;;;;13.65;12.48;;;;;;;;;;521129;28;1294;-64
2023/01/29 00:24:21;;;;;;;14.20;12.90;;;;;;;;;;523542;28;1456;-64
2023/01/29 00:24:36;;;;;;;14.00;12.70;;;;;;;;;;523680;28;1227;-64
2023/01/29 00:24:51;;;;;;;13.67;12.47;;;;;;;;;;521804;28;1378;-64
2023/01/29 00:25:08;;;;;;;13.60;12.40;;;;;;;;;;519473;28;1310;-64
2023/01/29 00:25:23;;;;;;;13.73;12.52;;;;;;;;;;515503;28;1247;-64
2023/01/29 00:25:39;;;;;;;14.30;13.00;;;;;;;;;;519644;28;1208;-65
2023/01/29 00:25:58;;;;;;;14.45;13.05;;;;;;;;;;521984;28;1376;-64
2023/01/29 00:26:15;;;;;;;14.10;12.80;;;;;;;;;;519857;28;1382;-64
2023/01/29 00:26:30;;;;;;;13.98;12.77;;;;;;;;;;522813;28;968;-64
2023/01/29 00:26:45;;;;;;;14.07;12.77;;;;;;;;;;521253;28;1313;-64
2023/01/29 00:27:01;;;;;;;13.97;12.77;;;;;;;;;;523986;28;1176;-64
2023/01/29 00:27:16;;;;;;;14.52;13.18;;;;;;;;;;524084;28;1215;-64
2023/01/29 00:27:31;;;;;;;14.37;12.97;;;;;;;;;;521005;28;1443;-64
2023/01/29 00:27:47;;;;;;;13.83;12.53;;;;;;;;;;521816;28;1334;-65
2023/01/29 00:28:02;;;;;;;13.70;12.50;;;;;;;;;;521785;28;1586;-64
2023/01/29 00:28:18;;;;;;;13.70;12.50;;;;;;;;;;521394;28;1207;-64
2023/01/29 00:28:33;;;;;;;13.77;12.57;;;;;;;;;;521763;28;1235;-64
2023/01/29 00:28:49;;;;;;;13.90;12.60;;;;;;;;;;523097;28;1234;-64
2023/01/29 00:29:05;;;;;;;14.57;13.17;;;;;;;;;;525184;28;1403;-64
2023/01/29 00:29:20;;;;;;;15.02;13.63;;;;;;;;;;526124;28;1068;-64
2023/01/29 00:29:36;;;;;;;14.80;13.50;;;;;;;;;;526490;28;1278;-64
2023/01/29 00:30:07;;;;;;;14.83;13.53;;;;;;;;;;521381;28;1970;-65
2023/01/29 00:30:23;;;;;;;14.32;13.05;;;;;;;;;;523043;28;1534;-64
2023/01/29 00:30:38;;;;;;;14.33;13.03;;;;;;;;;;520959;28;1408;-64
2023/01/29 00:30:53;;;;;;;14.57;13.23;;;;;;;;;;519689;28;1198;-64
2023/01/29 00:31:17;;;;;;;15.20;13.80;;;;;;;;;;518572;28;1342;-64
2023/01/29 00:31:32;;;;;;;14.90;13.60;;;;;;;;;;519294;28;1283;-64
2023/01/29 00:31:47;;;;;;;14.00;12.80;;;;;;;;;;520078;28;1296;-64
2023/01/29 00:32:03;;;;;;;14.33;13.03;;;;;;;;;;524149;28;1168;-64
2023/01/29 00:32:18;;;;;;;15.20;13.80;;;;;;;;;;521985;28;1191;-64
2023/01/29 00:32:34;;;;;;;15.18;13.77;;;;;;;;;;518052;28;1484;-64
2023/01/29 00:32:50;;;;;;;14.95;13.55;;;;;;;;;;520743;28;1302;-64
2023/01/29 00:33:06;;;;;;;14.90;13.50;;;;;;;;;;519914;28;1408;-64
2023/01/29 00:33:21;;;;;;;13.55;12.27;;;;;;;;;;518643;28;1558;-64
2023/01/29 00:33:37;;;;;;;12.93;11.77;;;;;;;;;;517193;28;1388;-64
2023/01/29 00:33:52;;;;;;;13.77;12.57;;;;;;;;;;518646;28;1206;-64
2023/01/29 00:34:07;;;;;;;14.43;13.18;;;;;;;;;;517060;28;1083;-64
2023/01/29 00:34:23;;;;;;;14.90;13.50;;;;;;;;;;517235;28;1228;-64
2023/01/29 00:34:38;;;;;;;14.45;13.20;;;;;;;;;;517708;28;1424;-65
2023/01/29 00:34:53;;;;;;;14.53;13.33;;;;;;;;;;519259;28;1947;-65
2023/01/29 00:35:10;;;;;;;15.23;13.87;;;;;;;;;;520347;28;1208;-64
2023/01/29 00:35:25;;;;;;;15.32;13.93;;;;;;;;;;518588;28;1274;-64
2023/01/29 00:35:40;;;;;;;15.70;14.30;;;;;;;;;;517047;28;1190;-64
2023/01/29 00:35:56;;;;;;;15.90;14.50;;;;;;;;;;517866;28;1055;-64
2023/01/29 00:36:13;;;;;;;15.38;14.00;;;;;;;;;;519693;28;1268;-64
2023/01/29 00:36:28;;;;;;;14.55;13.25;;;;;;;;;;518749;28;1648;-64
2023/01/29 00:36:44;;;;;;;14.83;13.53;;;;;;;;;;519116;28;1304;-65
2023/01/29 00:37:03;;;;;;;15.27;13.90;;;;;;;;;;520499;28;1304;-65
2023/01/29 00:37:18;;;;;;;15.55;14.15;;;;;;;;;;519337;28;1437;-64
2023/01/29 00:37:34;;;;;;;16.00;14.60;;;;;;;;;;521517;28;1551;-65
2023/01/29 00:37:49;;;;;;;16.13;14.73;;;;;;;;;;520882;28;1345;-64
2023/01/29 00:38:05;;;;;;;16.38;14.88;;;;;;;;;;522086;28;1200;-64
2023/01/29 00:38:20;;;;;;;15.67;14.27;;;;;;;;;;521944;28;1471;-64
2023/01/29 00:38:37;;;;;;;14.97;13.67;;;;;;;;;;517171;28;1262;-64
2023/01/29 00:39:01;;;;;;;14.82;13.60;;;;;;;;;;522297;28;1318;-65
2023/01/29 00:39:23;;;;;;;14.35;13.05;;;;;;;;;;518817;28;1446;-64
2023/01/29 00:39:38;;;;;;;14.68;13.32;;;;;;;;;;518739;28;1346;-64
2023/01/29 00:39:53;;;;;;;14.50;13.20;;;;;;;;;;518800;28;1228;-64
2023/01/29 00:40:09;;;;;;;14.57;13.27;;;;;;;;;;521437;28;1364;-64
2023/01/29 00:40:25;;;;;;;14.37;13.07;;;;;;;;;;520968;28;1363;-64
2023/01/29 00:44:57;;;;;;;12.45;11.30;;;;;;;;;;529053;27;981;-64
2023/01/29 00:45:13;;;;;;;12.73;11.63;;;;;;;;;;527190;27;1328;-64
2023/01/29 00:45:29;;;;;;;12.90;11.70;;;;;;;;;;524163;28;1453;-64
2023/01/29 00:45:44;;;;;;;13.17;11.90;;;;;;;;;;524821;28;1288;-64
2023/01/29 00:45:59;;;;;;;12.95;11.85;;;;;;;;;;523314;28;1363;-64
2023/01/29 00:46:14;;;;;;;13.50;12.30;;;;;;;;;;523214;28;1448;-64
2023/01/29 00:46:30;;;;;;;14.67;13.27;;;;;;;;;;520954;28;1168;-64
2023/01/29 00:46:45;;;;;;;14.63;13.32;;;;;;;;;;520140;28;1460;-65
2023/01/29 00:47:01;;;;;;;14.63;13.33;;;;;;;;;;522006;28;1117;-64
2023/01/29 00:47:37;;;;;;;15.00;13.52;;;;;;;;;;520591;28;1309;-64
2023/01/29 00:47:52;;;;;;;15.05;13.75;;;;;;;;;;524805;28;1165;-65
2023/01/29 00:48:07;;;;;;;14.70;13.30;;;;;;;;;;524896;28;1314;-64
2023/01/29 00:48:22;;;;;;;15.17;13.70;;;;;;;;;;522176;28;1465;-64
2023/01/29 00:48:38;;;;;;;14.73;13.33;;;;;;;;;;519946;28;1250;-64
2023/01/29 00:48:53;;;;;;;13.45;12.18;;;;;;;;;;517884;28;1355;-64
2023/01/29 00:49:08;;;;;;;13.20;12.00;;;;;;;;;;519371;28;1330;-64
2023/01/29 00:49:24;;;;;;;13.30;12.10;;;;;;;;;;519575;28;1184;-64
2023/01/29 00:49:40;;;;;;;14.00;12.80;;;;;;;;;;520489;28;2007;-64
2023/01/29 00:49:56;;;;;;;14.47;13.07;;;;;;;;;;521578;28;1357;-64
2023/01/29 00:50:12;;;;;;;14.07;12.70;;;;;;;;;;520828;28;1262;-64
2023/01/29 00:50:27;;;;;;;13.55;12.35;;;;;;;;;;517651;28;1203;-64
2023/01/29 00:50:42;;;;;;;13.77;12.47;;;;;;;;;;518955;28;1205;-64
2023/01/29 00:50:58;;;;;;;13.57;12.38;;;;;;;;;;518636;28;1346;-64
2023/01/29 00:51:13;;;;;;;13.67;12.47;;;;;;;;;;519017;28;1228;-64
2023/01/29 00:51:28;;;;;;;13.30;12.13;;;;;;;;;;516782;28;1273;-64
2023/01/29 00:52:22;;;;;;;13.38;12.18;;;;;;;;;;519626;28;1447;-63
2023/01/29 00:52:25;;;;;;;13.77;12.48;;;;;;;;;;519539;28;1018;-64
2023/01/29 00:52:40;;;;;;;14.60;13.20;;;;;;;;;;522424;28;1338;-64
2023/01/29 00:52:56;;;;;;;14.98;13.57;;;;;;;;;;521939;28;1287;-63
2023/01/29 00:53:11;;;;;;;14.80;13.50;;;;;;;;;;521521;28;1310;-64
2023/01/29 00:53:27;;;;;;;14.90;13.50;;;;;;;;;;519410;28;1337;-64
2023/01/29 00:53:43;;;;;;;15.02;13.57;;;;;;;;;;521478;28;1291;-64
2023/01/29 00:53:59;;;;;;;14.70;13.20;;;;;;;;;;518948;28;1349;-64
2023/01/29 00:54:14;;;;;;;15.05;13.52;;;;;;;;;;517480;28;1362;-64
2023/01/29 00:54:29;;;;;;;14.70;13.40;;;;;;;;;;521908;28;1214;-64
2023/01/29 00:54:44;;;;;;;14.20;12.98;;;;;;;;;;521250;28;1333;-64
2023/01/29 00:55:00;;;;;;;14.40;13.10;;;;;;;;;;519485;28;1231;-64
2023/01/29 00:55:15;;;;;;;14.37;13.07;;;;;;;;;;523324;28;1319;-64
2023/01/29 00:55:30;;;;;;;14.10;12.80;;;;;;;;;;522344;28;1205;-63
2023/01/29 00:55:46;;;;;;;13.77;12.47;;;;;;;;;;522914;28;1515;-64
2023/01/29 00:56:01;;;;;;;13.73;12.53;;;;;;;;;;520805;28;1286;-64
2023/01/29 00:56:16;;;;;;;14.00;12.70;;;;;;;;;;523904;28;1278;-65
2023/01/29 00:56:34;;;;;;;13.97;12.67;;;;;;;;;;521899;28;1238;-65
2023/01/29 00:56:50;;;;;;;13.95;12.70;;;;;;;;;;519706;28;1315;-65
2023/01/29 00:57:05;;;;;;;14.00;12.80;;;;;;;;;;520371;28;1135;-65
2023/01/29 00:57:21;;;;;;;14.02;12.82;;;;;;;;;;519577;28;1495;-65
2023/01/29 00:57:37;;;;;;;13.77;12.57;;;;;;;;;;519000;28;1298;-65
2023/01/29 00:57:53;;;;;;;13.73;12.45;;;;;;;;;;519054;28;1309;-65
2023/01/29 00:58:08;;;;;;;14.38;12.98;;;;;;;;;;518843;28;1190;-65
2023/01/29 00:58:33;;;;;;;14.57;13.20;;;;;;;;;;519461;28;1421;-65
2023/01/29 00:58:48;;;;;;;14.45;13.15;;;;;;;;;;520051;28;1091;-65
2023/01/29 00:59:03;;;;;;;14.77;13.47;;;;;;;;;;521590;28;1183;-65
2023/01/29 00:59:18;;;;;;;14.97;13.67;;;;;;;;;;519571;28;1184;-65
2023/01/29 00:59:34;;;;;;;14.95;13.65;;;;;;;;;;519799;28;1429;-64
2023/01/29 00:59:49;;;;;;;15.13;13.73;;;;;;;;;;521429;28;1224;-65
2023/01/29 01:00:08;;;;;;;15.40;14.00;;;;;;;;;;521829;28;1219;-65
2023/01/29 01:00:23;;;;;;;15.48;14.10;;;;;;;;;;521298;28;1259;-65
2023/01/29 01:00:39;;;;;;;15.50;14.10;;;;;;;;;;521235;28;1306;-65
2023/01/29 01:00:54;;;;;;;15.70;14.30;;;;;;;;;;519141;28;1238;-65
2023/01/29 01:01:10;;;;;;;16.08;14.57;;;;;;;;;;519582;28;1498;-65
2023/01/29 01:03:09;;;;;;;15.70;14.40;;;;;;;;;;528327;27;1109;-65
2023/01/29 01:03:24;;;;;;;15.95;14.55;;;;;;;;;;526014;27;1427;-65
2023/01/29 01:03:41;;;;;;;15.60;14.20;;;;;;;;;;525883;28;1296;-65
2023/01/29 01:03:56;;;;;;;16.00;14.60;;;;;;;;;;524927;28;1042;-65
2023/01/29 01:04:12;;;;;;;16.65;15.18;;;;;;;;;;525226;28;1210;-65
2023/01/29 01:04:27;;;;;;;16.70;15.20;;;;;;;;;;523672;28;1459;-65
2023/01/29 01:04:42;;;;;;;16.52;15.02;;;;;;;;;;524320;28;1243;-65
2023/01/29 01:04:58;;;;;;;16.83;15.23;;;;;;;;;;525467;28;1187;-65
2023/01/29 01:05:18;;;;;;;17.07;15.37;;;;;;;;;;527878;28;1491;-65
2023/01/29 01:05:34;;;;;;;17.30;15.70;;;;;;;;;;524527;28;1361;-65
2023/01/29 01:05:49;;;;;;;17.20;15.60;;;;;;;;;;523800;28;1250;-65
2023/01/29 01:06:09;;;;;;;16.85;15.20;;;;;;;;;;522423;28;1463;-65
2023/01/29 01:06:25;;;;;;;17.02;15.38;;;;;;;;;;523937;28;1339;-65
2023/01/29 01:06:41;;;;;;;17.43;15.83;;;;;;;;;;523371;28;1093;-65
2023/01/29 01:06:56;;;;;;;17.30;15.70;;;;;;;;;;521371;28;1297;-65
2023/01/29 01:07:12;;;;;;;17.07;15.53;;;;;;;;;;523817;28;1302;-65
2023/01/29 01:07:28;;;;;;;16.67;15.20;;;;;;;;;;523734;28;1570;-65
2023/01/29 01:07:48;;;;;;;16.65;15.15;;;;;;;;;;525969;28;1409;-64
2023/01/29 01:10:19;;;;;;;16.33;14.82;;;;;;;;;;522791;28;1301;-65
2023/01/29 01:10:26;;;;;;;17.05;15.52;;;;;;;;;;529196;27;1354;-65
2023/01/29 01:10:41;;;;;;;17.60;15.70;;;;;;;;;;527117;27;1393;-65
2023/01/29 01:11:02;;;;;;;17.10;15.47;;;;;;;;;;525862;28;1178;-65
2023/01/29 01:11:18;;;;;;;17.02;15.43;;;;;;;;;;522403;28;1337;-64
2023/01/29 01:11:33;;;;;;;17.83;16.03;;;;;;;;;;521737;28;1211;-65
2023/01/29 01:11:48;;;;;;;18.23;16.37;;;;;;;;;;523153;28;1171;-65
2023/01/29 01:12:04;;;;;;;17.67;16.05;;;;;;;;;;522770;28;1434;-65
2023/01/29 01:12:20;;;;;;;17.63;16.03;;;;;;;;;;521517;28;1248;-64
2023/01/29 01:12:35;;;;;;;17.67;16.02;;;;;;;;;;518864;28;1262;-65
2023/01/29 01:12:56;;;;;;;17.20;15.60;;;;;;;;;;521551;28;1299;-65
2023/01/29 01:13:12;;;;;;;17.63;15.93;;;;;;;;;;519455;28;1443;-65
2023/01/29 01:13:28;;;;;;;17.80;16.03;;;;;;;;;;516334;28;1300;-64
2023/01/29 01:13:43;;;;;;;17.55;15.95;;;;;;;;;;516690;28;1314;-64
2023/01/29 01:14:01;;;;;;;17.58;15.98;;;;;;;;;;517543;28;1378;-65
2023/01/29 01:14:17;;;;;;;17.63;16.02;;;;;;;;;;518903;28;1453;-65
2023/01/29 01:14:35;;;;;;;17.52;15.98;;;;;;;;;;518529;28;1255;-65
2023/01/29 01:14:50;;;;;;;17.80;16.20;;;;;;;;;;519896;28;1147;-65
2023/01/29 01:15:05;;;;;;;17.85;16.25;;;;;;;;;;521079;28;1377;-63
2023/01/29 01:15:23;;;;;;;17.83;16.23;;;;;;;;;;518459;28;1241;-63
2023/01/29 01:15:39;;;;;;;17.55;16.00;;;;;;;;;;521264;28;1310;-62
2023/01/29 01:15:54;;;;;;;17.65;16.05;;;;;;;;;;521218;28;1000;-63
2023/01/29 01:16:15;;;;;;;17.75;16.15;;;;;;;;;;520953;28;1226;-64
2023/01/29 01:16:30;;;;;;;17.42;15.75;;;;;;;;;;518645;28;1486;-63
2023/01/29 01:16:46;;;;;;;17.60;15.90;;;;;;;;;;517360;28;1200;-64
2023/01/29 01:17:02;;;;;;;17.85;16.15;;;;;;;;;;519296;28;1181;-64
2023/01/29 01:17:17;;;;;;;18.20;16.50;;;;;;;;;;519870;28;1175;-64
2023/01/29 01:17:33;;;;;;;18.23;16.53;;;;;;;;;;518672;28;1310;-64
2023/01/29 01:17:52;;;;;;;18.17;16.48;;;;;;;;;;519727;28;1279;-63
2023/01/29 01:18:07;;;;;;;18.17;16.48;;;;;;;;;;522981;28;1298;-63
2023/01/29 01:18:23;;;;;;;17.67;15.97;;;;;;;;;;522793;28;1361;-63
2023/01/29 01:18:39;;;;;;;17.30;15.70;;;;;;;;;;523538;28;1560;-63
2023/01/29 01:18:54;;;;;;;17.67;15.98;;;;;;;;;;523666;28;1413;-63
2023/01/29 01:19:09;;;;;;;17.53;15.83;;;;;;;;;;521489;28;1384;-64
2023/01/29 01:19:25;;;;;;;17.50;15.90;;;;;;;;;;521996;28;1144;-64
2023/01/29 01:19:40;;;;;;;17.77;16.17;;;;;;;;;;519607;28;1231;-64
2023/01/29 01:19:55;;;;;;;17.67;16.07;;;;;;;;;;523384;28;1358;-64
2023/01/29 01:20:11;;;;;;;17.85;16.15;;;;;;;;;;525484;28;1372;-64
2023/01/29 01:20:29;;;;;;;18.08;16.38;;;;;;;;;;527459;27;1458;-64
2023/01/29 01:20:49;;;;;;;17.85;16.25;;;;;;;;;;524388;28;1429;-64
2023/01/29 01:21:05;;;;;;;17.25;15.75;;;;;;;;;;523594;28;1368;-64
2023/01/29 01:21:20;;;;;;;17.55;15.95;;;;;;;;;;521567;28;1362;-64
2023/01/29 01:21:35;;;;;;;17.60;16.00;;;;;;;;;;519753;28;1201;-64
2023/01/29 01:21:50;;;;;;;17.93;16.23;;;;;;;;;;521749;28;1310;-64
2023/01/29 01:22:06;;;;;;;18.30;16.60;;;;;;;;;;520062;28;1360;-64
2023/01/29 01:22:21;;;;;;;18.13;16.47;;;;;;;;;;519342;28;1015;-64
2023/01/29 01:22:36;;;;;;;17.70;16.10;;;;;;;;;;517730;28;1200;-64
2023/01/29 01:22:55;;;;;;;17.77;16.23;;;;;;;;;;518426;28;1307;-64
2023/01/29 01:23:11;;;;;;;18.40;16.70;;;;;;;;;;518904;28;1434;-64
2023/01/29 01:23:26;;;;;;;18.00;16.37;;;;;;;;;;521342;28;1441;-65
2023/01/29 01:23:42;;;;;;;18.05;16.45;;;;;;;;;;519193;28;1301;-63
2023/01/29 01:23:57;;;;;;;18.00;16.40;;;;;;;;;;518248;28;1216;-64
2023/01/29 01:24:13;;;;;;;18.00;16.30;;;;;;;;;;519662;28;1224;-64
2023/01/29 01:24:28;;;;;;;18.70;17.00;;;;;;;;;;519514;28;1291;-64
2023/01/29 01:24:43;;;;;;;18.63;16.92;;;;;;;;;;517517;28;1209;-64
2023/01/29 01:24:59;;;;;;;18.13;16.43;;;;;;;;;;515423;28;1244;-64
2023/01/29 01:25:14;;;;;;;18.27;16.57;;;;;;;;;;515748;28;1453;-64
2023/01/29 01:25:30;;;;;;;18.05;16.45;;;;;;;;;;516962;28;1183;-64
2023/01/29 01:25:45;;;;;;;18.35;16.65;;;;;;;;;;517858;28;1244;-64
2023/01/29 01:26:00;;;;;;;17.90;16.30;;;;;;;;;;517192;28;1239;-64
2023/01/29 01:26:16;;;;;;;16.80;15.30;;;;;;;;;;519851;28;1196;-64
2023/01/29 01:26:32;;;;;;;17.73;16.02;;;;;;;;;;517511;28;1318;-64
2023/01/29 01:26:47;;;;;;;18.52;16.83;;;;;;;;;;517354;28;1365;-64
2023/01/29 01:27:02;;;;;;;18.50;16.90;;;;;;;;;;516131;28;1165;-64
2023/01/29 01:27:18;;;;;;;18.70;17.00;;;;;;;;;;516279;28;1185;-64
2023/01/29 01:27:33;;;;;;;18.55;16.85;;;;;;;;;;517138;28;1438;-64
2023/01/29 01:27:53;;;;;;;18.40;16.67;;;;;;;;;;516515;28;1371;-64
2023/01/29 01:28:09;;;;;;;18.13;16.40;;;;;;;;;;517501;28;1181;-64
2023/01/29 01:28:25;;;;;;;18.05;16.38;;;;;;;;;;517399;28;1372;-64
2023/01/29 01:28:40;;;;;;;18.33;16.73;;;;;;;;;;518189;28;1330;-64
2023/01/29 01:28:56;;;;;;;18.73;17.13;;;;;;;;;;519542;28;1339;-64
2023/01/29 01:29:11;;;;;;;18.75;17.05;;;;;;;;;;520281;28;1198;-64
2023/01/29 01:29:27;;;;;;;18.70;17.00;;;;;;;;;;518947;28;1299;-64
2023/01/29 01:29:42;;;;;;;18.63;16.93;;;;;;;;;;519965;28;1967;-64
2023/01/29 01:29:57;;;;;;;18.83;17.13;;;;;;;;;;522536;28;1181;-64
2023/01/29 01:30:14;;;;;;;18.75;16.95;;;;;;;;;;523918;28;1333;-64
2023/01/29 01:30:31;;;;;;;18.77;17.08;;;;;;;;;;523878;28;1028;-64
2023/01/29 01:30:47;;;;;;;19.27;17.38;;;;;;;;;;523030;28;1273;-64
2023/01/29 01:31:11;;;;;;;18.97;17.17;;;;;;;;;;523760;28;1309;-65
2023/01/29 01:31:26;;;;;;;18.50;16.90;;;;;;;;;;519528;28;1266;-64
2023/01/29 01:31:41;;;;;;;18.92;17.23;;;;;;;;;;518321;28;1560;-64
2023/01/29 01:31:58;;;;;;;19.30;17.50;;;;;;;;;;521664;28;1180;-64
2023/01/29 01:32:14;;;;;;;19.15;17.38;;;;;;;;;;518700;28;1519;-64
2023/01/29 01:32:30;;;;;;;19.25;17.55;;;;;;;;;;517629;28;1252;-64
2023/01/29 01:32:45;;;;;;;19.57;17.77;;;;;;;;;;521486;28;1365;-64
2023/01/29 01:33:00;;;;;;;19.63;17.73;;;;;;;;;;519477;28;1399;-64
2023/01/29 01:33:16;;;;;;;19.37;17.57;;;;;;;;;;519313;28;1390;-64
2023/01/29 01:33:31;;;;;;;19.13;17.43;;;;;;;;;;521765;28;1217;-64
2023/01/29 01:33:46;;;;;;;19.05;17.25;;;;;;;;;;522139;28;1214;-63
2023/01/29 01:34:02;;;;;;;18.93;17.10;;;;;;;;;;520264;28;1357;-63
2023/01/29 01:34:17;;;;;;;19.10;17.30;;;;;;;;;;522240;28;1412;-64
2023/01/29 01:34:32;;;;;;;19.27;17.50;;;;;;;;;;518983;28;1382;-64
2023/01/29 01:34:48;;;;;;;19.13;17.40;;;;;;;;;;518467;28;1258;-64
2023/01/29 01:35:04;;;;;;;19.33;17.52;;;;;;;;;;517722;28;1208;-64
2023/01/29 01:35:19;;;;;;;19.00;17.20;;;;;;;;;;520122;28;1442;-64
2023/01/29 01:35:37;;;;;;;18.90;17.30;;;;;;;;;;518730;28;1198;-64
2023/01/29 01:35:52;;;;;;;19.65;17.92;;;;;;;;;;519604;28;1487;-63
2023/01/29 01:36:08;;;;;;;19.57;17.77;;;;;;;;;;518559;28;1358;-63
2023/01/29 01:36:23;;;;;;;19.00;17.23;;;;;;;;;;518239;28;1381;-64
2023/01/29 01:36:39;;;;;;;18.67;16.97;;;;;;;;;;517169;28;1231;-63
2023/01/29 01:36:55;;;;;;;19.00;17.27;;;;;;;;;;520778;28;1543;-64
2023/01/29 01:37:10;;;;;;;18.92;17.23;;;;;;;;;;518257;28;1369;-64
2023/01/29 01:37:26;;;;;;;18.70;17.00;;;;;;;;;;521035;28;1386;-64
2023/01/29 01:37:41;;;;;;;19.13;17.33;;;;;;;;;;521645;28;1387;-64
2023/01/29 01:37:56;;;;;;;19.10;17.40;;;;;;;;;;520834;28;1508;-64
2023/01/29 01:38:12;;;;;;;19.07;17.30;;;;;;;;;;521657;28;1045;-64
2023/01/29 01:38:27;;;;;;;19.50;17.70;;;;;;;;;;519605;28;1226;-64
2023/01/29 01:38:45;;;;;;;19.57;17.87;;;;;;;;;;521060;28;1324;-64
2023/01/29 01:39:00;;;;;;;19.60;17.90;;;;;;;;;;516272;28;1586;-64
2023/01/29 01:39:16;;;;;;;19.77;17.98;;;;;;;;;;518121;28;1290;-64
2023/01/29 01:39:31;;;;;;;19.33;17.53;;;;;;;;;;517547;28;1244;-63
2023/01/29 01:39:47;;;;;;;19.27;17.57;;;;;;;;;;516810;28;1312;-64
2023/01/29 01:40:11;;;;;;;19.27;17.55;;;;;;;;;;517196;28;1354;-64
2023/01/29 01:40:26;;;;;;;19.48;17.65;;;;;;;;;;517150;28;1314;-64
2023/01/29 01:40:45;;;;;;;19.60;17.70;;;;;;;;;;516686;28;1433;-64
2023/01/29 01:41:00;;;;;;;20.08;18.17;;;;;;;;;;516079;28;1819;-64
2023/01/29 01:41:19;;;;;;;20.30;18.50;;;;;;;;;;517446;28;1277;-64
2023/01/29 01:41:34;;;;;;;19.80;18.02;;;;;;;;;;518562;28;1413;-64
2023/01/29 01:41:54;;;;;;;19.20;17.50;;;;;;;;;;517189;28;1295;-63
2023/01/29 01:42:11;;;;;;;19.67;17.90;;;;;;;;;;518518;28;1425;-64
2023/01/29 01:42:29;;;;;;;19.85;18.05;;;;;;;;;;518904;28;1584;-64
2023/01/29 01:42:55;;;;;;;20.08;18.27;;;;;;;;;;517444;28;1505;-64
2023/01/29 01:43:11;;;;;;;19.70;17.95;;;;;;;;;;519516;28;1024;-64
2023/01/29 01:43:26;;;;;;;19.90;18.10;;;;;;;;;;521094;28;1223;-64
2023/01/29 01:43:59;;;;;;;19.90;18.10;;;;;;;;;;522962;28;1293;-64
2023/01/29 01:44:53;;;;;;;19.98;18.08;;;;;;;;;;521396;28;1352;-64
2023/01/29 01:45:20;;;;;;;20.35;18.50;;;;;;;;;;523201;28;1118;-64
2023/01/29 01:45:36;;;;;;;19.90;18.10;;;;;;;;;;523419;28;1000;-64
2023/01/29 01:45:52;;;;;;;19.80;18.00;;;;;;;;;;523089;28;1427;-64
2023/01/29 01:46:08;;;;;;;19.70;17.88;;;;;;;;;;522907;28;1374;-64
2023/01/29 01:46:27;;;;;;;19.67;17.88;;;;;;;;;;523110;28;1293;-64